Adel, Indiana
Current Conditions -  °F | °C
As of 1:53 AM on Saturday 01 Nov 2014 (Local Time) from KBMG Reporting Station
Overcast Overcast  
Wind Chill: 25°   Ceiling: 3900
Heat Index: 34°   Visibility: 10mi
Dew Point: 25°   Wind: 14mph
Humidity: 70%   Direction: 360°N
Pressure: 30.18"   Gusts: 28mph
Location:  39.3008°N, 86.8112°W
Report Text: KBMG 010553Z 36012G24KT 10SM OVC039 01/M04 A3018 RMK AO2 PK WND 36028/0513 SLP225 60001 T00111039 10028 20011 51009
Loading
Personal Weather Stations






























Interactive Weather Map
Tropical Storm Tracking
New forecast layout! Learn more

10-Day Weather Forecast

Advertisements
Track Severe Weather on mobile